Terminal Aerodrome Forecast
Issued by NWS Wilmington, OH

Current Version | Previous Version | Graphics & Text | Print | Product List | Glossary On
Versions: 1 2 3 4 5 6 7 8 9 10 11 12 13 14 15 16 17 18 19 20 21 22 23 24 25 26 27
000
FTUS41 KILN 170500 RRA
TAFDAY
TAF
KDAY 170543Z 1706/1806 27012G20KT P6SM VCSH OVC015
      TEMPO 1707/1709 BKN007
     FM171100 27013G20KT P6SM OVC015
     FM172300 28010KT P6SM OVC018=

USA.gov is the U.S. government's official web portal to all federal, state and local government web resources and services.